sensor_id;sensor_type;location;lat;lon;timestamp;P1;durP1;ratioP1;P2;durP2;ratioP2
56331;SDS011;42237;53.340;6.812;2022-09-12T00:02:16;11.82;;;8.02;;
56331;SDS011;42237;53.340;6.812;2022-09-12T00:04:41;9.48;;;8.30;;
56331;SDS011;42237;53.340;6.812;2022-09-12T00:07:10;9.90;;;8.27;;
56331;SDS011;42237;53.340;6.812;2022-09-12T00:09:35;8.93;;;7.22;;
56331;SDS011;42237;53.340;6.812;2022-09-12T00:12:02;11.43;;;8.57;;
56331;SDS011;42237;53.340;6.812;2022-09-12T00:14:28;9.93;;;7.68;;
56331;SDS011;42237;53.340;6.812;2022-09-12T00:16:56;9.85;;;8.43;;
56331;SDS011;42237;53.340;6.812;2022-09-12T00:19:23;10.20;;;8.23;;
56331;SDS011;42237;53.340;6.812;2022-09-12T00:21:53;9.88;;;8.48;;
56331;SDS011;42237;53.340;6.812;2022-09-12T00:24:19;10.57;;;8.45;;
56331;SDS011;42237;53.340;6.812;2022-09-12T00:26:45;10.40;;;9.13;;
56331;SDS011;42237;53.340;6.812;2022-09-12T00:29:15;9.27;;;8.25;;
56331;SDS011;42237;53.340;6.812;2022-09-12T00:31:42;10.75;;;8.20;;
56331;SDS011;42237;53.340;6.812;2022-09-12T00:34:08;11.52;;;8.48;;
56331;SDS011;42237;53.340;6.812;2022-09-12T00:36:34;10.85;;;8.57;;
56331;SDS011;42237;53.340;6.812;2022-09-12T00:39:00;10.63;;;8.38;;
56331;SDS011;42237;53.340;6.812;2022-09-12T00:41:27;11.02;;;8.77;;
56331;SDS011;42237;53.340;6.812;2022-09-12T00:43:56;12.35;;;9.65;;
56331;SDS011;42237;53.340;6.812;2022-09-12T00:49:00;11.68;;;9.57;;
56331;SDS011;42237;53.340;6.812;2022-09-12T00:51:35;11.32;;;9.02;;
56331;SDS011;42237;53.340;6.812;2022-09-12T00:54:04;11.48;;;9.07;;
56331;SDS011;42237;53.340;6.812;2022-09-12T00:56:35;10.95;;;9.57;;
56331;SDS011;42237;53.340;6.812;2022-09-12T00:59:08;10.20;;;8.80;;
56331;SDS011;42237;53.340;6.812;2022-09-12T01:01:38;11.10;;;9.57;;
56331;SDS011;42237;53.340;6.812;2022-09-12T01:04:06;10.70;;;8.75;;
56331;SDS011;42237;53.340;6.812;2022-09-12T01:06:34;10.73;;;9.63;;
56331;SDS011;42237;53.340;6.812;2022-09-12T01:09:03;13.10;;;9.63;;
56331;SDS011;42237;53.340;6.812;2022-09-12T01:11:29;11.65;;;9.25;;
56331;SDS011;42237;53.340;6.812;2022-09-12T01:13:58;10.57;;;9.35;;
56331;SDS011;42237;53.340;6.812;2022-09-12T01:16:24;12.77;;;10.15;;
56331;SDS011;42237;53.340;6.812;2022-09-12T01:22:15;11.73;;;9.63;;
56331;SDS011;42237;53.340;6.812;2022-09-12T01:24:52;16.85;;;10.48;;
56331;SDS011;42237;53.340;6.812;2022-09-12T01:38:46;12.75;;;9.77;;
56331;SDS011;42237;53.340;6.812;2022-09-12T01:44:04;13.10;;;10.32;;
56331;SDS011;42237;53.340;6.812;2022-09-12T01:47:02;14.38;;;10.70;;
56331;SDS011;42237;53.340;6.812;2022-09-12T01:49:48;14.25;;;10.80;;
56331;SDS011;42237;53.340;6.812;2022-09-12T01:54:58;17.08;;;11.45;;
56331;SDS011;42237;53.340;6.812;2022-09-12T01:57:33;14.85;;;11.95;;
56331;SDS011;42237;53.340;6.812;2022-09-12T02:00:08;15.82;;;11.20;;
56331;SDS011;42237;53.340;6.812;2022-09-12T02:02:37;15.38;;;11.95;;
56331;SDS011;42237;53.340;6.812;2022-09-12T02:05:08;14.95;;;11.50;;
56331;SDS011;42237;53.340;6.812;2022-09-12T02:07:39;17.27;;;11.77;;
56331;SDS011;42237;53.340;6.812;2022-09-12T02:10:22;16.75;;;11.15;;
56331;SDS011;42237;53.340;6.812;2022-09-12T02:15:22;15.50;;;11.45;;
56331;SDS011;42237;53.340;6.812;2022-09-12T02:17:52;16.23;;;12.45;;
56331;SDS011;42237;53.340;6.812;2022-09-12T02:20:23;18.40;;;12.23;;
56331;SDS011;42237;53.340;6.812;2022-09-12T02:22:52;18.98;;;13.27;;
56331;SDS011;42237;53.340;6.812;2022-09-12T02:25:21;15.82;;;12.93;;
56331;SDS011;42237;53.340;6.812;2022-09-12T02:27:52;17.15;;;13.50;;
56331;SDS011;42237;53.340;6.812;2022-09-12T02:30:32;18.83;;;13.60;;
56331;SDS011;42237;53.340;6.812;2022-09-12T02:33:09;16.67;;;13.10;;
56331;SDS011;42237;53.340;6.812;2022-09-12T02:35:48;18.65;;;13.93;;
56331;SDS011;42237;53.340;6.812;2022-09-12T02:38:27;17.38;;;13.88;;
56331;SDS011;42237;53.340;6.812;2022-09-12T02:41:02;16.02;;;12.93;;
56331;SDS011;42237;53.340;6.812;2022-09-12T02:43:28;17.63;;;12.82;;
56331;SDS011;42237;53.340;6.812;2022-09-12T02:45:53;16.77;;;14.15;;
56331;SDS011;42237;53.340;6.812;2022-09-12T02:48:24;18.70;;;14.73;;
56331;SDS011;42237;53.340;6.812;2022-09-12T02:50:52;18.67;;;14.57;;
56331;SDS011;42237;53.340;6.812;2022-09-12T02:53:18;19.67;;;14.20;;
56331;SDS011;42237;53.340;6.812;2022-09-12T02:55:44;19.10;;;15.25;;
56331;SDS011;42237;53.340;6.812;2022-09-12T02:58:16;18.50;;;14.80;;
56331;SDS011;42237;53.340;6.812;2022-09-12T03:18:03;22.23;;;17.00;;
56331;SDS011;42237;53.340;6.812;2022-09-12T03:23:30;19.63;;;16.08;;
56331;SDS011;42237;53.340;6.812;2022-09-12T03:26:05;22.90;;;17.73;;
56331;SDS011;42237;53.340;6.812;2022-09-12T03:28:37;21.98;;;17.17;;
56331;SDS011;42237;53.340;6.812;2022-09-12T03:31:11;20.48;;;16.33;;
56331;SDS011;42237;53.340;6.812;2022-09-12T03:33:38;22.48;;;17.45;;
56331;SDS011;42237;53.340;6.812;2022-09-12T03:36:04;24.98;;;18.27;;
56331;SDS011;42237;53.340;6.812;2022-09-12T03:38:30;23.48;;;17.75;;
56331;SDS011;42237;53.340;6.812;2022-09-12T03:40:56;29.05;;;19.08;;
56331;SDS011;42237;53.340;6.812;2022-09-12T03:43:21;22.75;;;17.65;;
56331;SDS011;42237;53.340;6.812;2022-09-12T03:45:49;24.55;;;17.80;;
56331;SDS011;42237;53.340;6.812;2022-09-12T03:48:18;22.50;;;18.23;;
56331;SDS011;42237;53.340;6.812;2022-09-12T03:50:44;26.20;;;19.08;;
56331;SDS011;42237;53.340;6.812;2022-09-12T03:53:09;25.10;;;19.15;;
56331;SDS011;42237;53.340;6.812;2022-09-12T03:55:37;24.17;;;18.60;;
56331;SDS011;42237;53.340;6.812;2022-09-12T03:58:03;26.60;;;19.35;;
56331;SDS011;42237;53.340;6.812;2022-09-12T04:00:28;26.58;;;19.83;;
56331;SDS011;42237;53.340;6.812;2022-09-12T04:02:57;26.88;;;19.25;;
56331;SDS011;42237;53.340;6.812;2022-09-12T04:05:24;24.35;;;18.95;;
56331;SDS011;42237;53.340;6.812;2022-09-12T04:07:50;27.33;;;19.27;;
56331;SDS011;42237;53.340;6.812;2022-09-12T04:10:16;25.13;;;19.38;;
56331;SDS011;42237;53.340;6.812;2022-09-12T04:12:42;30.38;;;21.00;;
56331;SDS011;42237;53.340;6.812;2022-09-12T04:15:08;26.17;;;20.20;;
56331;SDS011;42237;53.340;6.812;2022-09-12T04:17:34;26.75;;;18.65;;
56331;SDS011;42237;53.340;6.812;2022-09-12T04:20:00;26.20;;;19.80;;
56331;SDS011;42237;53.340;6.812;2022-09-12T04:22:26;30.55;;;22.13;;
56331;SDS011;42237;53.340;6.812;2022-09-12T04:24:52;28.88;;;21.65;;
56331;SDS011;42237;53.340;6.812;2022-09-12T04:27:17;31.52;;;22.55;;
56331;SDS011;42237;53.340;6.812;2022-09-12T04:29:43;29.95;;;20.38;;
56331;SDS011;42237;53.340;6.812;2022-09-12T04:32:09;29.25;;;21.80;;
56331;SDS011;42237;53.340;6.812;2022-09-12T04:34:34;27.92;;;21.17;;
56331;SDS011;42237;53.340;6.812;2022-09-12T04:37:01;31.33;;;21.92;;
56331;SDS011;42237;53.340;6.812;2022-09-12T04:39:26;28.17;;;19.92;;
56331;SDS011;42237;53.340;6.812;2022-09-12T04:41:52;28.35;;;20.05;;
56331;SDS011;42237;53.340;6.812;2022-09-12T04:44:18;31.30;;;20.10;;
56331;SDS011;42237;53.340;6.812;2022-09-12T04:46:45;29.17;;;20.70;;
56331;SDS011;42237;53.340;6.812;2022-09-12T04:49:11;33.83;;;21.33;;
56331;SDS011;42237;53.340;6.812;2022-09-12T04:51:39;27.52;;;19.58;;
56331;SDS011;42237;53.340;6.812;2022-09-12T04:54:07;31.08;;;21.55;;
56331;SDS011;42237;53.340;6.812;2022-09-12T04:56:39;31.48;;;21.50;;
56331;SDS011;42237;53.340;6.812;2022-09-12T04:59:07;27.05;;;19.75;;
56331;SDS011;42237;53.340;6.812;2022-09-12T05:01:33;26.77;;;19.48;;
56331;SDS011;42237;53.340;6.812;2022-09-12T05:03:59;28.85;;;21.23;;
56331;SDS011;42237;53.340;6.812;2022-09-12T05:06:27;27.73;;;21.15;;
56331;SDS011;42237;53.340;6.812;2022-09-12T05:08:55;28.98;;;20.90;;
56331;SDS011;42237;53.340;6.812;2022-09-12T05:11:23;28.90;;;20.30;;
56331;SDS011;42237;53.340;6.812;2022-09-12T05:13:51;33.08;;;21.83;;
56331;SDS011;42237;53.340;6.812;2022-09-12T05:16:17;36.08;;;23.35;;
56331;SDS011;42237;53.340;6.812;2022-09-12T05:18:44;32.25;;;23.20;;
56331;SDS011;42237;53.340;6.812;2022-09-12T05:21:13;28.60;;;22.17;;
56331;SDS011;42237;53.340;6.812;2022-09-12T05:23:40;32.35;;;22.63;;
56331;SDS011;42237;53.340;6.812;2022-09-12T05:26:06;31.23;;;23.10;;
56331;SDS011;42237;53.340;6.812;2022-09-12T05:28:33;30.10;;;23.13;;
56331;SDS011;42237;53.340;6.812;2022-09-12T05:33:35;32.75;;;22.23;;
56331;SDS011;42237;53.340;6.812;2022-09-12T05:36:02;34.97;;;23.48;;
56331;SDS011;42237;53.340;6.812;2022-09-12T05:38:30;36.60;;;24.67;;
56331;SDS011;42237;53.340;6.812;2022-09-12T05:41:04;34.65;;;23.77;;
56331;SDS011;42237;53.340;6.812;2022-09-12T05:43:32;39.08;;;25.92;;
56331;SDS011;42237;53.340;6.812;2022-09-12T05:46:02;37.22;;;24.42;;
56331;SDS011;42237;53.340;6.812;2022-09-12T05:48:36;40.53;;;24.80;;
56331;SDS011;42237;53.340;6.812;2022-09-12T05:51:04;37.58;;;25.23;;
56331;SDS011;42237;53.340;6.812;2022-09-12T05:53:36;36.80;;;25.98;;
56331;SDS011;42237;53.340;6.812;2022-09-12T05:56:08;39.65;;;25.55;;
56331;SDS011;42237;53.340;6.812;2022-09-12T05:58:36;37.97;;;25.05;;
56331;SDS011;42237;53.340;6.812;2022-09-12T06:01:05;35.15;;;23.52;;
56331;SDS011;42237;53.340;6.812;2022-09-12T06:03:40;32.28;;;22.25;;
56331;SDS011;42237;53.340;6.812;2022-09-12T06:06:08;37.35;;;25.00;;
56331;SDS011;42237;53.340;6.812;2022-09-12T06:08:39;36.25;;;23.63;;
56331;SDS011;42237;53.340;6.812;2022-09-12T06:11:11;34.63;;;23.23;;
56331;SDS011;42237;53.340;6.812;2022-09-12T06:13:42;31.70;;;22.05;;
56331;SDS011;42237;53.340;6.812;2022-09-12T06:16:09;38.35;;;24.65;;
56331;SDS011;42237;53.340;6.812;2022-09-12T06:18:54;36.55;;;24.08;;
56331;SDS011;42237;53.340;6.812;2022-09-12T06:21:21;32.53;;;22.58;;
56331;SDS011;42237;53.340;6.812;2022-09-12T06:23:48;36.53;;;23.60;;
56331;SDS011;42237;53.340;6.812;2022-09-12T06:26:15;32.17;;;23.60;;
56331;SDS011;42237;53.340;6.812;2022-09-12T06:28:42;35.20;;;23.20;;
56331;SDS011;42237;53.340;6.812;2022-09-12T06:31:10;36.63;;;23.42;;
56331;SDS011;42237;53.340;6.812;2022-09-12T06:33:38;33.92;;;23.63;;
56331;SDS011;42237;53.340;6.812;2022-09-12T06:36:07;31.90;;;23.17;;
56331;SDS011;42237;53.340;6.812;2022-09-12T06:38:34;32.85;;;22.08;;
56331;SDS011;42237;53.340;6.812;2022-09-12T06:41:04;33.72;;;22.73;;
56331;SDS011;42237;53.340;6.812;2022-09-12T06:43:32;36.08;;;22.88;;
56331;SDS011;42237;53.340;6.812;2022-09-12T06:45:58;32.88;;;23.17;;
56331;SDS011;42237;53.340;6.812;2022-09-12T06:48:25;36.05;;;23.15;;
56331;SDS011;42237;53.340;6.812;2022-09-12T06:51:02;32.83;;;22.05;;
56331;SDS011;42237;53.340;6.812;2022-09-12T06:53:30;31.85;;;22.63;;
56331;SDS011;42237;53.340;6.812;2022-09-12T06:56:02;31.38;;;22.20;;
56331;SDS011;42237;53.340;6.812;2022-09-12T06:58:29;33.50;;;22.65;;
56331;SDS011;42237;53.340;6.812;2022-09-12T07:01:15;34.08;;;22.67;;
56331;SDS011;42237;53.340;6.812;2022-09-12T07:03:48;31.58;;;21.27;;
56331;SDS011;42237;53.340;6.812;2022-09-12T07:06:16;33.47;;;22.02;;
56331;SDS011;42237;53.340;6.812;2022-09-12T07:08:43;32.00;;;22.40;;
56331;SDS011;42237;53.340;6.812;2022-09-12T07:13:37;31.88;;;23.15;;
56331;SDS011;42237;53.340;6.812;2022-09-12T07:16:03;34.15;;;23.75;;
56331;SDS011;42237;53.340;6.812;2022-09-12T07:18:30;35.60;;;24.42;;
56331;SDS011;42237;53.340;6.812;2022-09-12T07:21:01;34.78;;;23.30;;
56331;SDS011;42237;53.340;6.812;2022-09-12T07:23:28;34.63;;;22.80;;
56331;SDS011;42237;53.340;6.812;2022-09-12T07:25:54;36.70;;;24.30;;
56331;SDS011;42237;53.340;6.812;2022-09-12T07:28:25;35.20;;;23.50;;
56331;SDS011;42237;53.340;6.812;2022-09-12T07:30:52;33.80;;;22.80;;
56331;SDS011;42237;53.340;6.812;2022-09-12T07:33:19;41.33;;;24.85;;
56331;SDS011;42237;53.340;6.812;2022-09-12T07:35:45;35.42;;;23.50;;
56331;SDS011;42237;53.340;6.812;2022-09-12T07:38:11;36.08;;;23.70;;
56331;SDS011;42237;53.340;6.812;2022-09-12T07:40:37;35.83;;;24.60;;
56331;SDS011;42237;53.340;6.812;2022-09-12T07:43:02;42.97;;;24.65;;
56331;SDS011;42237;53.340;6.812;2022-09-12T07:45:28;36.85;;;24.95;;
56331;SDS011;42237;53.340;6.812;2022-09-12T07:47:54;37.92;;;25.50;;
56331;SDS011;42237;53.340;6.812;2022-09-12T07:50:19;35.40;;;24.25;;
56331;SDS011;42237;53.340;6.812;2022-09-12T07:52:45;34.20;;;22.63;;
56331;SDS011;42237;53.340;6.812;2022-09-12T07:55:11;40.08;;;25.90;;
56331;SDS011;42237;53.340;6.812;2022-09-12T07:57:37;36.95;;;24.42;;
56331;SDS011;42237;53.340;6.812;2022-09-12T08:00:03;39.08;;;27.00;;
56331;SDS011;42237;53.340;6.812;2022-09-12T08:02:29;39.15;;;25.13;;
56331;SDS011;42237;53.340;6.812;2022-09-12T08:04:55;39.70;;;25.60;;
56331;SDS011;42237;53.340;6.812;2022-09-12T08:07:21;39.20;;;25.63;;
56331;SDS011;42237;53.340;6.812;2022-09-12T08:09:47;34.80;;;24.52;;
56331;SDS011;42237;53.340;6.812;2022-09-12T08:12:12;38.58;;;24.58;;
56331;SDS011;42237;53.340;6.812;2022-09-12T08:14:38;40.03;;;25.50;;
56331;SDS011;42237;53.340;6.812;2022-09-12T08:17:04;38.10;;;25.45;;
56331;SDS011;42237;53.340;6.812;2022-09-12T08:19:30;38.60;;;24.67;;
56331;SDS011;42237;53.340;6.812;2022-09-12T08:21:56;39.03;;;25.50;;
56331;SDS011;42237;53.340;6.812;2022-09-12T08:24:22;36.45;;;24.85;;
56331;SDS011;42237;53.340;6.812;2022-09-12T08:26:49;34.50;;;24.10;;
56331;SDS011;42237;53.340;6.812;2022-09-12T08:29:15;35.95;;;23.17;;
56331;SDS011;42237;53.340;6.812;2022-09-12T08:31:41;34.13;;;23.55;;
56331;SDS011;42237;53.340;6.812;2022-09-12T08:34:07;37.70;;;24.00;;
56331;SDS011;42237;53.340;6.812;2022-09-12T08:36:34;35.70;;;23.90;;
56331;SDS011;42237;53.340;6.812;2022-09-12T08:39:01;36.38;;;23.90;;
56331;SDS011;42237;53.340;6.812;2022-09-12T08:41:44;31.90;;;22.27;;
56331;SDS011;42237;53.340;6.812;2022-09-12T08:52:35;29.88;;;20.45;;
56331;SDS011;42237;53.340;6.812;2022-09-12T09:04:57;26.08;;;17.50;;
56331;SDS011;42237;53.340;6.812;2022-09-12T09:13:46;22.23;;;14.25;;
56331;SDS011;42237;53.340;6.812;2022-09-12T09:16:16;21.27;;;14.52;;
56331;SDS011;42237;53.340;6.812;2022-09-12T09:18:52;21.42;;;12.98;;
56331;SDS011;42237;53.340;6.812;2022-09-12T09:21:24;19.13;;;13.43;;
56331;SDS011;42237;53.340;6.812;2022-09-12T09:24:03;18.08;;;12.60;;
56331;SDS011;42237;53.340;6.812;2022-09-12T09:31:53;17.17;;;12.07;;
56331;SDS011;42237;53.340;6.812;2022-09-12T09:34:23;17.15;;;11.48;;
56331;SDS011;42237;53.340;6.812;2022-09-12T09:45:02;13.93;;;10.70;;
56331;SDS011;42237;53.340;6.812;2022-09-12T09:47:36;14.70;;;11.05;;
56331;SDS011;42237;53.340;6.812;2022-09-12T09:50:02;17.70;;;12.38;;
56331;SDS011;42237;53.340;6.812;2022-09-12T09:52:28;17.33;;;11.65;;
56331;SDS011;42237;53.340;6.812;2022-09-12T09:54:57;18.27;;;11.85;;
56331;SDS011;42237;53.340;6.812;2022-09-12T10:05:27;21.33;;;14.65;;
56331;SDS011;42237;53.340;6.812;2022-09-12T10:07:53;22.40;;;14.75;;
56331;SDS011;42237;53.340;6.812;2022-09-12T10:10:19;22.92;;;14.18;;
56331;SDS011;42237;53.340;6.812;2022-09-12T10:12:48;24.48;;;15.75;;
56331;SDS011;42237;53.340;6.812;2022-09-12T10:15:16;23.55;;;15.98;;
56331;SDS011;42237;53.340;6.812;2022-09-12T10:17:47;22.17;;;16.17;;
56331;SDS011;42237;53.340;6.812;2022-09-12T10:25:54;27.67;;;18.90;;
56331;SDS011;42237;53.340;6.812;2022-09-12T10:28:34;28.08;;;17.92;;
56331;SDS011;42237;53.340;6.812;2022-09-12T10:31:10;28.27;;;18.30;;
56331;SDS011;42237;53.340;6.812;2022-09-12T10:33:48;27.20;;;17.60;;
56331;SDS011;42237;53.340;6.812;2022-09-12T10:36:20;25.45;;;18.13;;
56331;SDS011;42237;53.340;6.812;2022-09-12T10:38:48;29.75;;;19.95;;
56331;SDS011;42237;53.340;6.812;2022-09-12T10:41:17;29.48;;;19.90;;
56331;SDS011;42237;53.340;6.812;2022-09-12T10:43:43;31.45;;;19.52;;
56331;SDS011;42237;53.340;6.812;2022-09-12T10:48:44;29.50;;;19.40;;
56331;SDS011;42237;53.340;6.812;2022-09-12T10:51:33;26.58;;;18.10;;
56331;SDS011;42237;53.340;6.812;2022-09-12T10:53:58;26.67;;;18.35;;
56331;SDS011;42237;53.340;6.812;2022-09-12T10:56:31;27.73;;;17.92;;
56331;SDS011;42237;53.340;6.812;2022-09-12T11:12:19;21.02;;;13.57;;
56331;SDS011;42237;53.340;6.812;2022-09-12T11:15:03;22.83;;;14.55;;
56331;SDS011;42237;53.340;6.812;2022-09-12T11:17:59;21.83;;;15.27;;
56331;SDS011;42237;53.340;6.812;2022-09-12T11:20:42;25.42;;;16.17;;
56331;SDS011;42237;53.340;6.812;2022-09-12T11:23:28;20.67;;;13.30;;
56331;SDS011;42237;53.340;6.812;2022-09-12T11:46:18;19.52;;;12.57;;
56331;SDS011;42237;53.340;6.812;2022-09-12T11:51:27;13.63;;;8.80;;
56331;SDS011;42237;53.340;6.812;2022-09-12T11:54:34;11.70;;;7.38;;
56331;SDS011;42237;53.340;6.812;2022-09-12T11:57:17;13.48;;;8.27;;
56331;SDS011;42237;53.340;6.812;2022-09-12T12:02:42;12.90;;;7.65;;
56331;SDS011;42237;53.340;6.812;2022-09-12T12:05:48;11.43;;;8.02;;
56331;SDS011;42237;53.340;6.812;2022-09-12T12:08:22;12.00;;;8.32;;
56331;SDS011;42237;53.340;6.812;2022-09-12T12:10:50;12.05;;;8.45;;
56331;SDS011;42237;53.340;6.812;2022-09-12T12:13:22;13.80;;;9.38;;
56331;SDS011;42237;53.340;6.812;2022-09-12T12:16:13;12.48;;;8.75;;
56331;SDS011;42237;53.340;6.812;2022-09-12T12:18:40;15.82;;;9.93;;
56331;SDS011;42237;53.340;6.812;2022-09-12T12:21:20;15.27;;;8.70;;
56331;SDS011;42237;53.340;6.812;2022-09-12T12:24:09;14.35;;;8.77;;
56331;SDS011;42237;53.340;6.812;2022-09-12T12:27:00;11.43;;;7.47;;
56331;SDS011;42237;53.340;6.812;2022-09-12T12:34:29;15.43;;;9.45;;
56331;SDS011;42237;53.340;6.812;2022-09-12T12:36:56;10.48;;;7.13;;
56331;SDS011;42237;53.340;6.812;2022-09-12T12:39:53;12.38;;;8.73;;
56331;SDS011;42237;53.340;6.812;2022-09-12T12:44:56;12.57;;;8.82;;
56331;SDS011;42237;53.340;6.812;2022-09-12T12:47:24;10.27;;;7.15;;
56331;SDS011;42237;53.340;6.812;2022-09-12T12:53:03;11.50;;;6.35;;
56331;SDS011;42237;53.340;6.812;2022-09-12T13:03:42;9.15;;;5.70;;
56331;SDS011;42237;53.340;6.812;2022-09-12T13:09:03;12.15;;;7.60;;
56331;SDS011;42237;53.340;6.812;2022-09-12T13:11:38;11.75;;;6.50;;
56331;SDS011;42237;53.340;6.812;2022-09-12T13:14:05;9.52;;;7.18;;
56331;SDS011;42237;53.340;6.812;2022-09-12T13:16:55;9.05;;;6.30;;
56331;SDS011;42237;53.340;6.812;2022-09-12T13:19:26;10.60;;;7.82;;
56331;SDS011;42237;53.340;6.812;2022-09-12T13:21:55;11.45;;;7.60;;
56331;SDS011;42237;53.340;6.812;2022-09-12T13:24:25;10.68;;;7.65;;
56331;SDS011;42237;53.340;6.812;2022-09-12T13:26:50;14.15;;;7.32;;
56331;SDS011;42237;53.340;6.812;2022-09-12T13:31:45;11.90;;;7.10;;
56331;SDS011;42237;53.340;6.812;2022-09-12T13:34:20;9.68;;;6.63;;
56331;SDS011;42237;53.340;6.812;2022-09-12T13:42:33;9.25;;;6.80;;
56331;SDS011;42237;53.340;6.812;2022-09-12T13:45:14;11.68;;;6.90;;
56331;SDS011;42237;53.340;6.812;2022-09-12T13:47:52;11.70;;;6.95;;
56331;SDS011;42237;53.340;6.812;2022-09-12T13:50:24;10.00;;;7.18;;
56331;SDS011;42237;53.340;6.812;2022-09-12T13:52:52;8.82;;;6.97;;
56331;SDS011;42237;53.340;6.812;2022-09-12T13:58:24;8.82;;;6.05;;
56331;SDS011;42237;53.340;6.812;2022-09-12T14:01:03;8.13;;;6.68;;
56331;SDS011;42237;53.340;6.812;2022-09-12T14:03:39;10.90;;;6.68;;
56331;SDS011;42237;53.340;6.812;2022-09-12T14:06:49;10.68;;;6.20;;
56331;SDS011;42237;53.340;6.812;2022-09-12T14:09:24;9.35;;;7.15;;
56331;SDS011;42237;53.340;6.812;2022-09-12T14:11:58;10.52;;;7.10;;
56331;SDS011;42237;53.340;6.812;2022-09-12T14:17:13;9.07;;;6.70;;
56331;SDS011;42237;53.340;6.812;2022-09-12T14:19:53;8.93;;;6.43;;
56331;SDS011;42237;53.340;6.812;2022-09-12T14:22:23;8.15;;;5.95;;
56331;SDS011;42237;53.340;6.812;2022-09-12T14:24:51;10.02;;;6.35;;
56331;SDS011;42237;53.340;6.812;2022-09-12T14:27:19;8.57;;;5.75;;
56331;SDS011;42237;53.340;6.812;2022-09-12T14:30:25;6.93;;;5.32;;
56331;SDS011;42237;53.340;6.812;2022-09-12T14:33:21;6.60;;;4.95;;
56331;SDS011;42237;53.340;6.812;2022-09-12T14:35:49;8.75;;;5.72;;
56331;SDS011;42237;53.340;6.812;2022-09-12T14:38:18;8.67;;;5.87;;
56331;SDS011;42237;53.340;6.812;2022-09-12T14:40:50;8.55;;;5.85;;
56331;SDS011;42237;53.340;6.812;2022-09-12T14:43:31;9.32;;;6.57;;
56331;SDS011;42237;53.340;6.812;2022-09-12T14:46:03;9.43;;;6.57;;
56331;SDS011;42237;53.340;6.812;2022-09-12T14:48:32;8.77;;;6.30;;
56331;SDS011;42237;53.340;6.812;2022-09-12T14:51:01;8.82;;;5.68;;
56331;SDS011;42237;53.340;6.812;2022-09-12T14:53:30;8.02;;;5.95;;
56331;SDS011;42237;53.340;6.812;2022-09-12T14:56:08;11.95;;;7.25;;
56331;SDS011;42237;53.340;6.812;2022-09-12T14:58:37;9.52;;;6.32;;
56331;SDS011;42237;53.340;6.812;2022-09-12T15:03:36;9.68;;;6.32;;
56331;SDS011;42237;53.340;6.812;2022-09-12T15:09:04;8.20;;;5.80;;
56331;SDS011;42237;53.340;6.812;2022-09-12T15:11:32;8.35;;;5.00;;
56331;SDS011;42237;53.340;6.812;2022-09-12T15:13:58;7.68;;;5.25;;
56331;SDS011;42237;53.340;6.812;2022-09-12T15:16:31;7.00;;;5.15;;
56331;SDS011;42237;53.340;6.812;2022-09-12T15:18:57;12.02;;;6.18;;
56331;SDS011;42237;53.340;6.812;2022-09-12T15:21:23;8.77;;;5.35;;
56331;SDS011;42237;53.340;6.812;2022-09-12T15:23:49;9.18;;;4.75;;
56331;SDS011;42237;53.340;6.812;2022-09-12T15:26:20;7.40;;;5.10;;
56331;SDS011;42237;53.340;6.812;2022-09-12T15:28:47;7.55;;;5.13;;
56331;SDS011;42237;53.340;6.812;2022-09-12T15:31:27;7.03;;;5.30;;
56331;SDS011;42237;53.340;6.812;2022-09-12T15:33:55;11.40;;;5.25;;
56331;SDS011;42237;53.340;6.812;2022-09-12T15:36:22;8.10;;;5.47;;
56331;SDS011;42237;53.340;6.812;2022-09-12T15:38:49;7.38;;;4.45;;
56331;SDS011;42237;53.340;6.812;2022-09-12T15:41:22;6.35;;;4.20;;
56331;SDS011;42237;53.340;6.812;2022-09-12T15:43:53;7.90;;;5.30;;
56331;SDS011;42237;53.340;6.812;2022-09-12T15:46:18;6.40;;;4.40;;
56331;SDS011;42237;53.340;6.812;2022-09-12T15:48:44;6.10;;;4.57;;
56331;SDS011;42237;53.340;6.812;2022-09-12T15:51:11;6.43;;;4.70;;
56331;SDS011;42237;53.340;6.812;2022-09-12T15:53:38;7.97;;;4.70;;
56331;SDS011;42237;53.340;6.812;2022-09-12T15:56:04;7.72;;;5.05;;
56331;SDS011;42237;53.340;6.812;2022-09-12T15:58:30;8.02;;;4.82;;
56331;SDS011;42237;53.340;6.812;2022-09-12T16:00:55;9.80;;;5.13;;
56331;SDS011;42237;53.340;6.812;2022-09-12T16:03:22;6.50;;;4.60;;
56331;SDS011;42237;53.340;6.812;2022-09-12T16:05:52;7.07;;;5.43;;
56331;SDS011;42237;53.340;6.812;2022-09-12T16:08:21;6.60;;;4.70;;
56331;SDS011;42237;53.340;6.812;2022-09-12T16:10:48;6.53;;;4.45;;
56331;SDS011;42237;53.340;6.812;2022-09-12T16:13:18;7.22;;;4.40;;
56331;SDS011;42237;53.340;6.812;2022-09-12T16:15:44;5.57;;;4.40;;
56331;SDS011;42237;53.340;6.812;2022-09-12T16:18:10;7.50;;;5.05;;
56331;SDS011;42237;53.340;6.812;2022-09-12T16:20:37;6.55;;;4.90;;
56331;SDS011;42237;53.340;6.812;2022-09-12T16:23:04;8.13;;;5.15;;
56331;SDS011;42237;53.340;6.812;2022-09-12T16:25:31;7.80;;;5.35;;
56331;SDS011;42237;53.340;6.812;2022-09-12T16:27:57;8.15;;;5.60;;
56331;SDS011;42237;53.340;6.812;2022-09-12T16:30:23;7.95;;;5.35;;
56331;SDS011;42237;53.340;6.812;2022-09-12T16:32:50;10.45;;;5.72;;
56331;SDS011;42237;53.340;6.812;2022-09-12T16:35:16;7.60;;;6.22;;
56331;SDS011;42237;53.340;6.812;2022-09-12T16:37:42;9.57;;;6.82;;
56331;SDS011;42237;53.340;6.812;2022-09-12T16:40:08;9.10;;;7.28;;
56331;SDS011;42237;53.340;6.812;2022-09-12T16:42:34;10.23;;;7.95;;
56331;SDS011;42237;53.340;6.812;2022-09-12T16:45:00;8.55;;;6.25;;
56331;SDS011;42237;53.340;6.812;2022-09-12T16:47:26;10.18;;;7.32;;
56331;SDS011;42237;53.340;6.812;2022-09-12T16:49:56;7.93;;;6.50;;
56331;SDS011;42237;53.340;6.812;2022-09-12T16:52:23;8.38;;;6.50;;
56331;SDS011;42237;53.340;6.812;2022-09-12T16:54:48;9.23;;;6.40;;
56331;SDS011;42237;53.340;6.812;2022-09-12T16:57:14;17.70;;;6.97;;
56331;SDS011;42237;53.340;6.812;2022-09-12T16:59:40;9.35;;;6.95;;
56331;SDS011;42237;53.340;6.812;2022-09-12T17:02:06;8.43;;;6.25;;
56331;SDS011;42237;53.340;6.812;2022-09-12T17:04:36;7.95;;;5.88;;
56331;SDS011;42237;53.340;6.812;2022-09-12T17:07:01;8.18;;;5.53;;
56331;SDS011;42237;53.340;6.812;2022-09-12T17:09:27;6.82;;;4.70;;
56331;SDS011;42237;53.340;6.812;2022-09-12T17:11:53;7.32;;;4.75;;
56331;SDS011;42237;53.340;6.812;2022-09-12T17:14:19;7.43;;;4.85;;
56331;SDS011;42237;53.340;6.812;2022-09-12T17:16:45;6.60;;;4.10;;
56331;SDS011;42237;53.340;6.812;2022-09-12T17:19:12;5.55;;;4.10;;
56331;SDS011;42237;53.340;6.812;2022-09-12T17:21:46;6.40;;;4.05;;
56331;SDS011;42237;53.340;6.812;2022-09-12T17:24:14;5.43;;;4.05;;
56331;SDS011;42237;53.340;6.812;2022-09-12T17:26:44;5.45;;;3.35;;
56331;SDS011;42237;53.340;6.812;2022-09-12T17:29:13;7.13;;;4.00;;
56331;SDS011;42237;53.340;6.812;2022-09-12T17:31:40;6.35;;;4.10;;
56331;SDS011;42237;53.340;6.812;2022-09-12T17:34:07;5.97;;;3.88;;
56331;SDS011;42237;53.340;6.812;2022-09-12T17:36:33;5.65;;;3.72;;
56331;SDS011;42237;53.340;6.812;2022-09-12T17:39:02;5.47;;;3.70;;
56331;SDS011;42237;53.340;6.812;2022-09-12T17:41:28;5.40;;;3.35;;
56331;SDS011;42237;53.340;6.812;2022-09-12T17:43:58;5.30;;;4.22;;
56331;SDS011;42237;53.340;6.812;2022-09-12T17:46:28;4.53;;;3.38;;
56331;SDS011;42237;53.340;6.812;2022-09-12T17:48:56;5.25;;;3.85;;
56331;SDS011;42237;53.340;6.812;2022-09-12T17:51:24;7.03;;;4.10;;
56331;SDS011;42237;53.340;6.812;2022-09-12T17:53:57;6.53;;;3.92;;